createdAt,value
2023-02-02T00:01:35.018Z,19.97
2023-02-02T00:04:02.329Z,12.63
2023-02-02T00:06:31.097Z,10.50
2023-02-02T00:09:00.285Z,12.13
2023-02-02T00:11:27.670Z,17.23
2023-02-02T00:13:54.896Z,10.20
2023-02-02T00:16:30.970Z,16.00
2023-02-02T00:19:00.551Z,13.70
2023-02-02T00:21:28.142Z,12.77
2023-02-02T00:23:54.988Z,14.27
2023-02-02T00:26:22.045Z,11.23
2023-02-02T00:28:48.862Z,13.97
2023-02-02T00:31:15.720Z,14.97
2023-02-02T00:33:49.795Z,14.57
2023-02-02T00:36:17.941Z,18.67
2023-02-02T00:38:45.960Z,13.77
2023-02-02T00:41:12.819Z,13.00
2023-02-02T00:43:39.598Z,20.50
2023-02-02T00:46:06.636Z,18.33
2023-02-02T00:48:33.648Z,15.33
2023-02-02T00:51:02.221Z,23.00
2023-02-02T00:53:29.098Z,16.67
2023-02-02T00:55:55.883Z,20.43
2023-02-02T00:58:22.651Z,18.30
2023-02-02T01:00:49.474Z,20.40
2023-02-02T01:03:16.336Z,18.87
2023-02-02T01:05:43.128Z,18.07
2023-02-02T01:08:10.563Z,14.73
2023-02-02T01:10:37.440Z,18.13
2023-02-02T01:13:04.296Z,17.80
2023-02-02T01:15:31.276Z,23.93
2023-02-02T01:17:58.419Z,17.47
2023-02-02T01:20:25.882Z,16.83
2023-02-02T01:22:52.988Z,20.03
2023-02-02T01:25:19.886Z,21.00
2023-02-02T01:27:46.701Z,18.77
2023-02-02T01:30:13.978Z,14.70
2023-02-02T01:32:40.777Z,20.97
2023-02-02T01:35:07.988Z,25.23
2023-02-02T01:37:34.914Z,17.70
2023-02-02T01:40:01.797Z,16.70
2023-02-02T01:42:28.673Z,17.87
2023-02-02T01:45:04.372Z,17.77
2023-02-02T01:47:35.616Z,19.70
2023-02-02T01:50:04.145Z,17.47
2023-02-02T01:52:32.986Z,20.77
2023-02-02T01:55:04.465Z,13.73
2023-02-02T01:57:39.931Z,18.93
2023-02-02T02:00:12.415Z,11.97
2023-02-02T02:02:41.201Z,16.13
2023-02-02T02:05:09.140Z,12.10
2023-02-02T02:07:35.970Z,23.47
2023-02-02T02:10:03.285Z,23.80
2023-02-02T02:12:30.083Z,11.90
2023-02-02T02:15:15.645Z,16.87
2023-02-02T02:18:04.184Z,16.43
2023-02-02T02:21:07.933Z,18.07
2023-02-02T02:24:28.608Z,16.97
2023-02-02T02:27:01.219Z,22.83
2023-02-02T02:29:55.564Z,17.83
2023-02-02T02:32:28.347Z,18.03
2023-02-02T02:35:09.880Z,16.53
2023-02-02T02:37:54.622Z,18.03
2023-02-02T02:40:27.320Z,19.13
2023-02-02T02:42:59.248Z,19.17
2023-02-02T02:45:28.189Z,17.23
2023-02-02T02:47:55.483Z,18.27
2023-02-02T02:50:22.986Z,18.83
2023-02-02T02:53:02.428Z,20.93
2023-02-02T02:55:38.584Z,16.27
2023-02-02T02:58:14.129Z,15.07
2023-02-02T03:00:44.550Z,22.00
2023-02-02T03:03:26.744Z,11.70
2023-02-02T03:06:19.767Z,21.97
2023-02-02T03:08:53.916Z,12.10
2023-02-02T03:11:21.377Z,16.77
2023-02-02T03:13:48.927Z,21.37
2023-02-02T03:16:16.698Z,17.87
2023-02-02T03:18:43.979Z,19.80
2023-02-02T03:21:10.916Z,21.83
2023-02-02T03:23:38.774Z,17.60
2023-02-02T03:26:05.929Z,16.07
2023-02-02T03:28:33.084Z,19.20
2023-02-02T03:31:01.558Z,19.20
2023-02-02T03:33:30.025Z,18.30
2023-02-02T03:35:56.799Z,28.83
2023-02-02T03:38:23.616Z,20.33
2023-02-02T03:40:51.910Z,14.50
2023-02-02T03:43:25.164Z,24.17
2023-02-02T03:46:06.896Z,16.73
2023-02-02T03:48:38.211Z,16.10
2023-02-02T03:51:11.732Z,20.33
2023-02-02T03:53:39.406Z,19.03
2023-02-02T03:56:07.047Z,19.97
2023-02-02T03:58:42.803Z,15.97
2023-02-02T04:01:13.437Z,21.37
2023-02-02T04:03:40.483Z,17.90
2023-02-02T04:06:07.350Z,22.10
2023-02-02T04:08:34.596Z,24.33
2023-02-02T04:11:01.551Z,19.73
2023-02-02T04:13:28.400Z,15.30
2023-02-02T04:16:01.606Z,20.37
2023-02-02T04:18:29.467Z,21.07
2023-02-02T04:21:00.993Z,24.23
2023-02-02T04:23:29.088Z,12.00
2023-02-02T04:25:56.691Z,13.83
2023-02-02T04:28:24.222Z,21.67
2023-02-02T04:30:52.381Z,15.73
2023-02-02T04:33:20.110Z,17.30
2023-02-02T04:35:46.968Z,16.83
2023-02-02T04:38:13.833Z,15.27
2023-02-02T04:40:42.832Z,13.43
2023-02-02T04:43:10.361Z,23.77
2023-02-02T04:45:37.268Z,13.43
2023-02-02T04:48:04.812Z,16.87
2023-02-02T04:50:32.090Z,8.13
2023-02-02T04:52:58.874Z,12.07
2023-02-02T04:55:26.037Z,13.10
2023-02-02T04:57:52.996Z,21.03
2023-02-02T05:00:20.132Z,20.60
2023-02-02T05:02:46.983Z,26.23
2023-02-02T05:05:14.460Z,15.23
2023-02-02T05:07:41.399Z,14.83
2023-02-02T05:10:09.892Z,14.87
2023-02-02T05:12:36.802Z,15.53
2023-02-02T05:15:05.622Z,13.67
2023-02-02T05:17:33.331Z,15.90
2023-02-02T05:20:00.443Z,24.97
2023-02-02T05:22:27.405Z,15.57
2023-02-02T05:24:54.279Z,14.47
2023-02-02T05:27:21.139Z,21.07
2023-02-02T05:29:48.316Z,14.70
2023-02-02T05:32:15.332Z,16.47
2023-02-02T05:34:42.392Z,14.77
2023-02-02T05:37:09.243Z,13.20
2023-02-02T05:39:36.063Z,15.33
2023-02-02T05:42:02.893Z,14.90
2023-02-02T05:44:29.646Z,17.33
2023-02-02T05:46:56.398Z,20.77
2023-02-02T05:49:23.148Z,17.57
2023-02-02T05:51:57.308Z,14.33
2023-02-02T05:54:24.920Z,18.90
2023-02-02T05:56:54.562Z,19.00
2023-02-02T05:59:21.868Z,15.20
2023-02-02T06:01:49.045Z,15.67
2023-02-02T06:04:16.407Z,13.93
2023-02-02T06:06:43.992Z,13.00
2023-02-02T06:09:11.159Z,10.43
2023-02-02T06:11:39.530Z,18.33
2023-02-02T06:14:07.225Z,15.93
2023-02-02T06:16:34.127Z,15.93
2023-02-02T06:19:01.010Z,16.27
2023-02-02T06:21:31.145Z,16.83
2023-02-02T06:23:58.878Z,13.53
2023-02-02T06:26:26.455Z,12.07
2023-02-02T06:28:54.441Z,19.10
2023-02-02T06:31:22.398Z,15.37
2023-02-02T06:33:54.545Z,17.17
2023-02-02T06:36:21.529Z,18.43
2023-02-02T06:38:55.757Z,18.50
2023-02-02T06:41:23.211Z,16.40
2023-02-02T06:43:50.318Z,19.03
2023-02-02T06:46:17.599Z,14.40
2023-02-02T06:49:04.440Z,12.20
2023-02-02T06:51:32.104Z,14.80
2023-02-02T06:53:59.641Z,13.87
2023-02-02T06:56:26.687Z,19.53
2023-02-02T06:58:53.458Z,10.80
2023-02-02T07:01:20.451Z,22.57
2023-02-02T07:03:51.269Z,19.20
2023-02-02T07:06:24.643Z,15.23
2023-02-02T07:09:02.248Z,20.43
2023-02-02T07:11:32.583Z,28.63
2023-02-02T07:14:00.565Z,17.67
2023-02-02T07:16:27.488Z,16.93
2023-02-02T07:18:54.399Z,22.97
2023-02-02T07:21:28.293Z,23.17
2023-02-02T07:23:55.202Z,13.13
2023-02-02T07:26:21.994Z,19.93
2023-02-02T07:28:48.790Z,17.57
2023-02-02T07:31:21.531Z,22.07
2023-02-02T07:33:49.019Z,17.07
2023-02-02T07:36:18.074Z,19.23
2023-02-02T07:38:46.321Z,30.07
2023-02-02T07:41:14.074Z,15.97
2023-02-02T07:43:41.047Z,14.40
2023-02-02T07:46:10.557Z,16.97
2023-02-02T07:48:37.781Z,13.57
2023-02-02T07:51:07.338Z,16.03
2023-02-02T07:53:35.099Z,21.27
2023-02-02T07:56:10.704Z,14.90
2023-02-02T07:58:37.498Z,19.77
2023-02-02T08:01:07.154Z,21.40
2023-02-02T08:03:35.272Z,15.40
2023-02-02T08:06:08.514Z,13.37
2023-02-02T08:08:35.424Z,17.47
2023-02-02T08:11:02.233Z,15.10
2023-02-02T08:13:29.099Z,19.97
2023-02-02T08:15:58.524Z,19.70
2023-02-02T08:18:25.585Z,19.27
2023-02-02T08:20:52.789Z,17.97
2023-02-02T08:23:23.610Z,17.10
2023-02-02T08:25:51.243Z,14.87
2023-02-02T08:28:19.021Z,17.27
2023-02-02T08:30:46.688Z,19.90
2023-02-02T08:33:14.679Z,13.50
2023-02-02T08:35:42.975Z,18.40
2023-02-02T08:38:10.686Z,14.80
2023-02-02T08:40:37.498Z,16.00
2023-02-02T08:43:04.972Z,24.17
2023-02-02T08:46:04.204Z,20.83
2023-02-02T08:48:21.300Z,17.33
2023-02-02T08:50:59.060Z,14.87
2023-02-02T08:53:26.978Z,14.63
2023-02-02T08:56:09.646Z,16.43
2023-02-02T08:58:36.698Z,22.80
2023-02-02T09:01:24.851Z,16.20
2023-02-02T09:03:59.482Z,17.70
2023-02-02T09:06:33.595Z,18.10
2023-02-02T09:09:01.108Z,25.47
2023-02-02T09:11:28.883Z,28.43
2023-02-02T09:13:57.682Z,17.83
2023-02-02T09:16:25.649Z,18.83
2023-02-02T09:18:52.885Z,22.23
2023-02-02T09:21:20.373Z,22.73
2023-02-02T09:23:48.672Z,23.87
2023-02-02T09:26:18.999Z,23.83
2023-02-02T09:28:51.744Z,20.57
2023-02-02T09:31:19.018Z,22.00
2023-02-02T09:33:45.936Z,24.10
2023-02-02T09:36:16.965Z,25.57
2023-02-02T09:38:44.611Z,24.33
2023-02-02T09:41:29.723Z,19.43
2023-02-02T09:44:34.272Z,17.93
2023-02-02T09:47:39.933Z,20.47
2023-02-02T09:50:12.858Z,15.60
2023-02-02T09:52:43.858Z,20.10
2023-02-02T09:55:20.923Z,17.10
2023-02-02T09:57:52.678Z,21.37
2023-02-02T10:00:35.151Z,12.47
2023-02-02T10:03:11.106Z,23.10
2023-02-02T10:06:02.705Z,28.77
2023-02-02T10:08:52.389Z,15.17
2023-02-02T10:11:34.507Z,22.73
2023-02-02T10:14:07.627Z,16.63
2023-02-02T10:16:37.655Z,16.93
2023-02-02T10:19:14.905Z,23.53
2023-02-02T10:21:51.816Z,18.67
2023-02-02T10:24:26.397Z,15.43
2023-02-02T10:27:04.504Z,22.23
2023-02-02T10:29:49.070Z,14.33
2023-02-02T10:32:25.149Z,20.83
2023-02-02T10:35:12.964Z,21.60
2023-02-02T10:38:00.752Z,22.17
2023-02-02T10:40:27.895Z,12.67
2023-02-02T10:43:13.815Z,14.30
2023-02-02T10:45:43.563Z,10.90
2023-02-02T10:48:22.116Z,13.73
2023-02-02T10:50:53.921Z,19.03
2023-02-02T10:53:22.600Z,10.83
2023-02-02T10:56:11.767Z,15.50
2023-02-02T10:58:41.667Z,16.00
2023-02-02T11:01:14.980Z,14.70
2023-02-02T11:03:42.154Z,14.37
2023-02-02T11:06:30.551Z,17.13
2023-02-02T11:08:59.687Z,21.40
2023-02-02T11:11:46.979Z,16.10
2023-02-02T11:14:20.994Z,11.60
2023-02-02T11:17:02.526Z,16.77
2023-02-02T11:19:31.260Z,13.40
2023-02-02T11:22:00.884Z,15.33
2023-02-02T11:24:49.669Z,14.43
2023-02-02T11:27:38.227Z,14.00
2023-02-02T11:30:32.511Z,16.30
2023-02-02T11:32:59.424Z,19.87
2023-02-02T11:35:29.729Z,19.80
2023-02-02T11:38:08.149Z,18.90
2023-02-02T11:40:46.216Z,12.80
2023-02-02T11:43:20.801Z,17.07
2023-02-02T11:45:53.957Z,14.67
2023-02-02T11:48:24.701Z,15.53
2023-02-02T11:50:54.732Z,11.00
2023-02-02T11:53:33.112Z,11.17
2023-02-02T11:56:05.786Z,12.33
2023-02-02T11:58:50.985Z,14.80
2023-02-02T12:01:32.614Z,13.27
2023-02-02T12:04:01.958Z,16.57
2023-02-02T12:06:39.129Z,15.67
2023-02-02T12:09:21.660Z,17.50
2023-02-02T12:12:06.911Z,10.47
2023-02-02T12:14:46.662Z,15.33
2023-02-02T12:17:31.843Z,19.13
2023-02-02T12:20:17.452Z,15.97
2023-02-02T12:22:53.277Z,9.90
2023-02-02T12:25:42.243Z,15.23
2023-02-02T12:28:43.152Z,16.67
2023-02-02T12:31:41.491Z,12.10
2023-02-02T12:34:36.667Z,11.80
2023-02-02T12:37:11.028Z,13.33
2023-02-02T12:39:56.393Z,15.97
2023-02-02T12:42:23.130Z,16.63
2023-02-02T12:45:04.995Z,13.97
2023-02-02T12:47:53.402Z,19.90
2023-02-02T12:51:16.793Z,12.70
2023-02-02T12:54:35.184Z,13.33
2023-02-02T12:56:54.589Z,13.40
2023-02-02T12:59:27.604Z,10.67
2023-02-02T13:01:54.409Z,12.13
2023-02-02T13:04:34.894Z,11.47
2023-02-02T13:07:21.427Z,18.40
2023-02-02T13:09:59.423Z,14.77
2023-02-02T13:12:28.404Z,12.67
2023-02-02T13:15:02.770Z,18.90
2023-02-02T13:17:36.402Z,13.40
2023-02-02T13:20:07.574Z,11.53
2023-02-02T13:22:43.937Z,15.73
2023-02-02T13:25:25.374Z,16.00
2023-02-02T13:27:53.595Z,14.37
2023-02-02T13:30:23.187Z,10.20
2023-02-02T13:32:53.214Z,15.83
2023-02-02T13:35:48.695Z,15.00
2023-02-02T13:38:23.851Z,16.00
2023-02-02T13:40:53.226Z,11.20
2023-02-02T13:43:43.795Z,10.30
2023-02-02T13:46:25.921Z,14.73
2023-02-02T13:49:10.973Z,10.40
2023-02-02T13:51:54.669Z,18.53
2023-02-02T13:54:44.817Z,15.87
2023-02-02T13:57:30.744Z,14.37
2023-02-02T14:00:17.370Z,16.27
2023-02-02T14:02:49.298Z,9.10
2023-02-02T14:05:30.524Z,12.37
2023-02-02T14:08:07.015Z,9.57
2023-02-02T14:10:41.335Z,21.70
2023-02-02T14:13:45.677Z,16.13
2023-02-02T14:16:38.600Z,12.77
2023-02-02T14:19:09.239Z,19.67
2023-02-02T14:21:35.998Z,19.90
2023-02-02T14:24:22.303Z,25.37
2023-02-02T14:27:00.634Z,15.60
2023-02-02T14:29:33.593Z,19.37
2023-02-02T14:32:29.321Z,18.00
2023-02-02T14:35:11.349Z,18.27
2023-02-02T14:37:59.965Z,15.37
2023-02-02T14:40:42.629Z,10.63
2023-02-02T14:43:44.742Z,12.97
2023-02-02T14:46:14.603Z,21.37
2023-02-02T14:48:47.154Z,16.77
2023-02-02T14:51:18.759Z,14.57
2023-02-02T14:54:05.876Z,16.30
2023-02-02T14:56:51.355Z,25.73
2023-02-02T14:59:31.753Z,21.70
2023-02-02T15:02:29.627Z,15.23
2023-02-02T15:05:32.935Z,19.70
2023-02-02T15:08:21.929Z,16.57
2023-02-02T15:10:53.684Z,15.03
2023-02-02T15:13:37.420Z,11.30
2023-02-02T15:16:19.995Z,25.60
2023-02-02T15:18:57.581Z,20.63
2023-02-02T15:21:26.453Z,18.37
2023-02-02T15:23:54.216Z,24.40
2023-02-02T15:26:32.909Z,15.43
2023-02-02T15:29:13.600Z,21.60
2023-02-02T15:31:44.509Z,13.60
2023-02-02T15:34:23.346Z,17.97
2023-02-02T15:36:53.772Z,17.63
2023-02-02T15:39:29.943Z,24.30
2023-02-02T15:42:17.244Z,24.57
2023-02-02T15:44:44.093Z,15.53
2023-02-02T15:47:20.091Z,22.33
2023-02-02T15:49:46.920Z,24.20
2023-02-02T15:52:27.157Z,29.07
2023-02-02T15:54:56.579Z,21.50
2023-02-02T15:57:28.439Z,29.97
2023-02-02T15:59:55.924Z,28.13
2023-02-02T16:02:36.565Z,27.07
2023-02-02T16:05:38.461Z,28.03
2023-02-02T16:08:09.468Z,30.23
2023-02-02T16:10:36.324Z,28.13
2023-02-02T16:13:03.707Z,25.70
2023-02-02T16:15:34.186Z,30.57
2023-02-02T16:18:08.016Z,28.73
2023-02-02T16:20:37.287Z,27.40
2023-02-02T16:23:11.610Z,37.23
2023-02-02T16:25:50.584Z,27.83
2023-02-02T16:28:19.367Z,33.00
2023-02-02T16:30:46.772Z,24.70
2023-02-02T16:33:29.389Z,26.07
2023-02-02T16:35:56.860Z,25.80
2023-02-02T16:38:24.285Z,31.70
2023-02-02T16:41:02.108Z,27.90
2023-02-02T16:43:30.267Z,28.67
2023-02-02T16:46:01.348Z,28.10
2023-02-02T16:48:29.413Z,30.37
2023-02-02T16:51:07.729Z,31.53
2023-02-02T16:53:35.566Z,24.30
2023-02-02T16:56:04.443Z,25.87
2023-02-02T16:58:32.148Z,34.37
2023-02-02T17:01:17.293Z,25.93
2023-02-02T17:03:50.525Z,26.10
2023-02-02T17:06:17.981Z,23.63
2023-02-02T17:08:45.384Z,26.00
2023-02-02T17:11:25.983Z,25.23
2023-02-02T17:19:29.723Z,24.47
2023-02-02T17:21:57.659Z,23.83
2023-02-02T17:24:24.922Z,21.80
2023-02-02T17:26:52.313Z,22.13
2023-02-02T17:29:20.495Z,25.47
2023-02-02T17:31:47.695Z,20.20
2023-02-02T17:34:15.312Z,22.97
2023-02-02T17:36:45.646Z,21.87
2023-02-02T17:39:12.893Z,20.70
2023-02-02T17:41:40.258Z,25.87
2023-02-02T17:44:09.306Z,22.80
2023-02-02T17:46:39.726Z,24.40
2023-02-02T17:49:07.219Z,24.87
2023-02-02T17:51:41.071Z,26.70
2023-02-02T17:54:12.292Z,25.83
2023-02-02T17:56:39.540Z,24.47
2023-02-02T17:59:07.090Z,25.37
2023-02-02T18:01:38.920Z,25.60
2023-02-02T18:04:06.556Z,21.30
2023-02-02T18:06:33.842Z,19.37
2023-02-02T18:09:01.118Z,24.23
2023-02-02T18:11:28.354Z,19.83
2023-02-02T18:13:55.572Z,23.50
2023-02-02T18:16:22.875Z,21.87
2023-02-02T18:18:50.105Z,21.63
2023-02-02T18:21:17.668Z,23.73
2023-02-02T18:23:48.513Z,26.60
2023-02-02T18:26:20.046Z,28.30
2023-02-02T18:28:48.895Z,29.63
2023-02-02T18:31:18.491Z,29.07
2023-02-02T18:33:46.263Z,25.77
2023-02-02T18:36:14.924Z,27.73
2023-02-02T18:38:45.304Z,31.93
2023-02-02T18:41:12.968Z,31.27
2023-02-02T18:43:40.154Z,37.80
2023-02-02T18:46:13.525Z,28.17
2023-02-02T18:48:41.536Z,32.27
2023-02-02T18:51:09.788Z,35.07
2023-02-02T18:53:36.982Z,34.67
2023-02-02T18:56:07.628Z,31.60
2023-02-02T18:58:35.151Z,36.90
2023-02-02T19:01:08.749Z,36.83
2023-02-02T19:03:36.748Z,33.97
2023-02-02T19:06:23.843Z,35.17
2023-02-02T19:08:51.412Z,31.57
2023-02-02T19:11:20.107Z,33.07
2023-02-02T19:13:47.765Z,26.50
2023-02-02T19:16:28.743Z,37.33
2023-02-02T19:19:01.203Z,31.37
2023-02-02T19:21:31.595Z,29.53
2023-02-02T19:24:00.216Z,31.83
2023-02-02T19:26:28.124Z,31.73
2023-02-02T19:29:06.496Z,35.37
2023-02-02T19:31:33.684Z,33.63
2023-02-02T19:34:03.566Z,34.70
2023-02-02T19:36:31.566Z,37.00
2023-02-02T19:39:05.656Z,54.30
2023-02-02T19:41:38.250Z,42.13
2023-02-02T19:44:32.184Z,49.13
2023-02-02T19:47:00.464Z,36.23
2023-02-02T19:49:31.717Z,33.93
2023-02-02T19:51:59.390Z,34.63
2023-02-02T19:54:28.668Z,41.57
2023-02-02T19:57:22.159Z,38.83
2023-02-02T19:59:50.947Z,38.87
2023-02-02T20:02:39.217Z,38.30
2023-02-02T20:05:17.474Z,36.83
2023-02-02T20:07:44.887Z,36.53
2023-02-02T20:10:12.007Z,31.03
2023-02-02T20:12:39.237Z,38.53
2023-02-02T20:15:21.949Z,35.27
2023-02-02T20:17:49.159Z,38.83
2023-02-02T20:20:24.724Z,29.27
2023-02-02T20:22:52.229Z,32.07
2023-02-02T20:25:19.664Z,30.13
2023-02-02T20:27:46.875Z,30.07
2023-02-02T20:30:22.235Z,31.00
2023-02-02T20:32:51.748Z,35.80
2023-02-02T20:35:24.772Z,24.97
2023-02-02T20:37:52.166Z,29.97
2023-02-02T20:40:22.608Z,31.30
2023-02-02T20:42:50.271Z,28.37
2023-02-02T20:45:18.223Z,25.33
2023-02-02T20:47:49.097Z,25.07
2023-02-02T20:50:17.557Z,28.83
2023-02-02T20:52:45.035Z,26.20
2023-02-02T20:55:12.360Z,24.03
2023-02-02T20:57:40.326Z,30.40
2023-02-02T21:00:08.836Z,27.77
2023-02-02T21:02:36.070Z,33.30
2023-02-02T21:05:03.000Z,35.57
2023-02-02T21:07:30.730Z,31.53
2023-02-02T21:09:57.610Z,31.13
2023-02-02T21:12:25.760Z,29.57
2023-02-02T21:14:55.454Z,30.10
2023-02-02T21:17:22.472Z,26.53
2023-02-02T21:19:49.331Z,29.33
2023-02-02T21:22:16.212Z,37.00
2023-02-02T21:24:43.151Z,37.00
2023-02-02T21:27:14.276Z,30.80
2023-02-02T21:29:41.546Z,30.10
2023-02-02T21:32:08.973Z,31.87
2023-02-02T21:34:37.764Z,42.67
2023-02-02T21:37:11.025Z,35.00
2023-02-02T21:39:38.542Z,28.67
2023-02-02T21:42:08.954Z,33.80
2023-02-02T21:44:36.937Z,26.13
2023-02-02T21:47:12.733Z,24.97
2023-02-02T21:49:40.267Z,31.73
2023-02-02T21:52:13.191Z,25.30
2023-02-02T21:54:40.629Z,16.00
2023-02-02T21:57:21.505Z,20.47
2023-02-02T21:59:53.530Z,22.33
2023-02-02T22:02:29.658Z,20.20
2023-02-02T22:04:59.114Z,17.13
2023-02-02T22:07:26.484Z,26.20
2023-02-02T22:09:54.356Z,18.13
2023-02-02T22:12:23.121Z,23.13
2023-02-02T22:14:56.009Z,23.63
2023-02-02T22:17:23.274Z,21.60
2023-02-02T22:19:59.657Z,25.47
2023-02-02T22:22:27.678Z,20.83
2023-02-02T22:25:07.508Z,17.17
2023-02-02T22:27:42.295Z,22.33
2023-02-02T22:30:23.152Z,22.63
2023-02-02T22:32:50.417Z,24.30
2023-02-02T22:35:17.558Z,16.70
2023-02-02T22:37:44.859Z,19.13
2023-02-02T22:40:12.349Z,19.10
2023-02-02T22:42:39.560Z,18.20
2023-02-02T22:45:07.015Z,20.37
2023-02-02T22:47:34.164Z,25.43
2023-02-02T22:50:02.280Z,21.13
2023-02-02T22:52:29.914Z,20.87
2023-02-02T22:54:57.158Z,24.60
2023-02-02T22:57:24.006Z,22.63
2023-02-02T22:59:50.821Z,19.23
2023-02-02T23:02:17.595Z,24.30
2023-02-02T23:04:44.362Z,19.37
2023-02-02T23:07:11.224Z,22.00
2023-02-02T23:09:38.046Z,17.03
2023-02-02T23:12:05.155Z,19.53
2023-02-02T23:14:31.976Z,18.53
2023-02-02T23:16:58.757Z,20.60
2023-02-02T23:19:25.623Z,20.67
2023-02-02T23:21:52.725Z,17.90
2023-02-02T23:24:19.580Z,16.83
2023-02-02T23:26:46.363Z,19.03
2023-02-02T23:29:13.156Z,24.33
2023-02-02T23:31:40.113Z,18.57
2023-02-02T23:34:06.903Z,19.83
2023-02-02T23:36:33.701Z,15.20
2023-02-02T23:39:00.459Z,18.70
2023-02-02T23:41:27.370Z,18.80
2023-02-02T23:43:54.185Z,21.73
2023-02-02T23:46:21.296Z,18.57
2023-02-02T23:48:48.319Z,20.33
2023-02-02T23:51:15.402Z,13.77
2023-02-02T23:53:42.922Z,19.83
2023-02-02T23:56:09.923Z,18.00
2023-02-02T23:58:36.727Z,16.13
